createdAt,value
2023-01-29T00:02:09.488Z,99899.38
2023-01-29T00:04:37.889Z,99905.13
2023-01-29T00:07:04.630Z,99906.59
2023-01-29T00:09:31.971Z,99901.84
2023-01-29T00:11:58.758Z,99891.78
2023-01-29T00:14:27.226Z,99890.75
2023-01-29T00:16:54.212Z,99897.97
2023-01-29T00:19:21.219Z,99886.84
2023-01-29T00:21:48.064Z,99899.38
2023-01-29T00:24:14.912Z,99893.84
2023-01-29T00:26:42.369Z,99893.59
2023-01-29T00:29:09.228Z,99899.59
2023-01-29T00:31:36.178Z,99894.44
2023-01-29T00:34:03.763Z,99898.38
2023-01-29T00:36:30.544Z,99890.38
2023-01-29T00:38:59.205Z,99890.38
2023-01-29T00:41:47.197Z,99901.88
2023-01-29T00:44:32.739Z,99897.56
2023-01-29T00:46:59.860Z,99896.53
2023-01-29T00:49:26.683Z,99902.50
2023-01-29T00:52:12.065Z,99902.50
2023-01-29T00:54:38.724Z,99906.63
2023-01-29T00:57:05.413Z,99904.16
2023-01-29T00:59:32.083Z,99904.38
2023-01-29T01:02:17.562Z,99904.97
2023-01-29T01:04:44.325Z,99901.06
2023-01-29T01:09:55.810Z,99909.50
2023-01-29T01:12:22.628Z,99898.59
2023-01-29T01:14:50.001Z,99888.13
2023-01-29T01:17:17.066Z,99889.56
2023-01-29T01:19:44.130Z,99891.19
2023-01-29T01:22:11.551Z,99892.63
2023-01-29T01:24:39.143Z,99890.97
2023-01-29T01:27:09.295Z,99892.44
2023-01-29T01:29:36.785Z,99898.81
2023-01-29T01:32:03.700Z,99906.41
2023-01-29T01:34:30.520Z,99909.28
2023-01-29T01:36:57.433Z,99908.69
2023-01-29T01:39:25.216Z,99909.91
2023-01-29T01:41:56.260Z,99905.59
2023-01-29T01:45:00.558Z,99904.78
2023-01-29T01:47:30.328Z,99915.06
2023-01-29T01:50:03.968Z,99906.84
2023-01-29T01:52:32.386Z,99909.53
2023-01-29T01:55:00.179Z,99894.31
2023-01-29T01:57:32.069Z,99898.41
2023-01-29T02:00:10.706Z,99891.84
2023-01-29T02:03:01.486Z,99889.19
2023-01-29T02:05:49.547Z,99887.34
2023-01-29T02:08:45.614Z,99892.47
2023-01-29T02:11:13.050Z,99897.41
2023-01-29T02:13:39.897Z,99898.41
2023-01-29T02:16:06.791Z,99889.78
2023-01-29T02:18:37.991Z,99892.88
2023-01-29T02:21:32.156Z,99896.78
2023-01-29T02:24:17.851Z,99900.28
2023-01-29T02:26:53.629Z,99905.00
2023-01-29T02:29:35.248Z,99898.44
2023-01-29T02:32:01.970Z,99899.88
2023-01-29T02:34:59.673Z,99895.31
2023-01-29T02:37:38.138Z,99891.44
2023-01-29T02:40:23.196Z,99879.53
2023-01-29T02:43:07.409Z,99886.50
2023-01-29T02:45:45.015Z,99896.78
2023-01-29T02:48:17.706Z,99891.66
2023-01-29T02:50:54.260Z,99895.78
2023-01-29T02:53:30.082Z,99895.78
2023-01-29T02:56:18.498Z,99892.69
2023-01-29T02:58:54.753Z,99894.97
2023-01-29T03:01:30.332Z,99894.75
2023-01-29T03:04:06.034Z,99892.28
2023-01-29T03:06:38.286Z,99879.13
2023-01-29T03:09:09.704Z,99878.28
2023-01-29T03:11:48.188Z,99888.78
2023-01-29T03:14:23.343Z,99883.25
2023-01-29T03:16:54.334Z,99893.94
2023-01-29T03:19:31.831Z,99886.53
2023-01-29T03:22:00.803Z,99887.97
2023-01-29T03:25:16.570Z,99885.31
2023-01-29T03:28:06.600Z,99875.00
2023-01-29T03:30:56.688Z,99873.00
2023-01-29T03:33:26.288Z,99885.31
2023-01-29T03:36:06.515Z,99889.00
2023-01-29T03:38:33.311Z,99889.22
2023-01-29T03:41:08.834Z,99885.31
2023-01-29T03:43:44.764Z,99879.34
2023-01-29T03:46:22.358Z,99886.34
2023-01-29T03:49:00.703Z,99887.38
2023-01-29T03:51:35.191Z,99882.63
2023-01-29T03:54:08.262Z,99886.94
2023-01-29T03:56:47.205Z,99885.94
2023-01-29T03:59:41.135Z,99888.00
2023-01-29T04:02:19.209Z,99881.81
2023-01-29T04:04:51.913Z,99887.16
2023-01-29T04:07:26.660Z,99887.78
2023-01-29T04:10:02.638Z,99885.34
2023-01-29T04:12:41.052Z,99883.69
2023-01-29T04:15:12.614Z,99887.59
2023-01-29T04:17:42.743Z,99887.38
2023-01-29T04:20:10.403Z,99878.97
2023-01-29T04:22:39.484Z,99886.75
2023-01-29T04:25:15.997Z,99894.75
2023-01-29T04:28:15.277Z,99893.97
2023-01-29T04:30:52.245Z,99895.41
2023-01-29T04:33:22.065Z,99889.22
2023-01-29T04:36:13.537Z,99889.22
2023-01-29T04:39:02.173Z,99887.78
2023-01-29T04:41:46.773Z,99888.81
2023-01-29T04:44:41.390Z,99886.56
2023-01-29T04:47:08.196Z,99887.16
2023-01-29T04:50:00.994Z,99882.44
2023-01-29T04:52:49.516Z,99887.59
2023-01-29T04:55:36.538Z,99887.59
2023-01-29T04:58:18.412Z,99891.50
2023-01-29T05:00:49.799Z,99879.78
2023-01-29T05:03:16.771Z,99879.78
2023-01-29T05:05:48.912Z,99882.66
2023-01-29T05:08:21.762Z,99882.84
2023-01-29T05:10:50.345Z,99885.53
2023-01-29T05:13:18.867Z,99892.50
2023-01-29T05:15:56.556Z,99897.44
2023-01-29T05:18:23.542Z,99907.09
2023-01-29T05:20:50.506Z,99909.75
2023-01-29T05:23:22.373Z,99912.44
2023-01-29T05:25:50.514Z,99916.75
2023-01-29T05:28:17.602Z,99905.88
2023-01-29T05:30:49.551Z,99895.19
2023-01-29T05:33:22.197Z,99888.63
2023-01-29T05:35:49.967Z,99885.09
2023-01-29T05:38:18.599Z,99872.19
2023-01-29T05:40:45.853Z,99863.16
2023-01-29T05:43:15.898Z,99850.41
2023-01-29T05:45:43.157Z,99836.84
2023-01-29T05:48:09.909Z,99855.94
2023-01-29T05:50:36.638Z,99862.72
2023-01-29T05:53:03.398Z,99879.56
2023-01-29T05:55:30.065Z,99867.25
2023-01-29T05:57:56.814Z,99862.13
2023-01-29T06:00:23.864Z,99865.22
2023-01-29T06:02:50.734Z,99871.97
2023-01-29T06:05:17.480Z,99881.22
2023-01-29T06:07:45.307Z,99870.53
2023-01-29T06:10:14.912Z,99871.75
2023-01-29T06:12:43.098Z,99873.63
2023-01-29T06:15:11.264Z,99873.22
2023-01-29T06:17:38.037Z,99880.81
2023-01-29T06:20:05.652Z,99878.78
2023-01-29T06:22:33.159Z,99883.28
2023-01-29T06:24:59.879Z,99883.88
2023-01-29T06:27:26.726Z,99889.03
2023-01-29T06:29:53.747Z,99890.25
2023-01-29T06:32:20.432Z,99883.25
2023-01-29T06:34:49.594Z,99875.88
2023-01-29T06:37:16.429Z,99881.00
2023-01-29T06:39:43.175Z,99882.25
2023-01-29T06:42:11.070Z,99880.00
2023-01-29T06:44:37.877Z,99884.09
2023-01-29T06:47:04.586Z,99875.06
2023-01-29T06:49:31.766Z,99877.72
2023-01-29T06:51:58.499Z,99880.78
2023-01-29T06:54:25.520Z,99885.75
2023-01-29T06:56:52.281Z,99876.91
2023-01-29T06:59:19.002Z,99877.50
2023-01-29T07:01:45.964Z,99880.41
2023-01-29T07:04:12.793Z,99873.81
2023-01-29T07:06:39.638Z,99870.13
2023-01-29T07:09:06.379Z,99873.00
2023-01-29T07:11:34.894Z,99880.41
2023-01-29T07:14:01.607Z,99873.63
2023-01-29T07:16:28.404Z,99885.34
2023-01-29T07:18:55.447Z,99886.13
2023-01-29T07:21:22.485Z,99896.63
2023-01-29T07:23:49.279Z,99902.16
2023-01-29T07:26:16.210Z,99906.47
2023-01-29T07:28:42.972Z,99903.81
2023-01-29T07:31:13.105Z,99903.19
2023-01-29T07:33:40.008Z,99902.78
2023-01-29T07:36:08.399Z,99905.66
2023-01-29T07:38:35.146Z,99904.63
2023-01-29T07:41:03.227Z,99918.59
2023-01-29T07:43:30.556Z,99920.25
2023-01-29T07:46:01.935Z,99914.28
2023-01-29T07:48:29.289Z,99908.75
2023-01-29T07:50:56.600Z,99913.25
2023-01-29T07:53:23.569Z,99911.19
2023-01-29T07:55:50.841Z,99910.19
2023-01-29T07:58:17.500Z,99917.38
2023-01-29T08:00:44.407Z,99927.22
2023-01-29T08:03:18.754Z,99929.88
2023-01-29T08:05:45.732Z,99948.19
2023-01-29T08:08:12.689Z,99949.00
2023-01-29T08:10:40.653Z,99951.88
2023-01-29T08:13:08.205Z,99950.22
2023-01-29T08:15:37.789Z,99944.88
2023-01-29T08:18:05.646Z,99944.06
2023-01-29T08:20:32.757Z,99939.34
2023-01-29T08:23:05.828Z,99933.59
2023-01-29T08:25:33.649Z,99933.78
2023-01-29T08:28:01.091Z,99944.47
2023-01-29T08:30:30.775Z,99942.81
2023-01-29T08:32:57.612Z,99941.38
2023-01-29T08:35:24.848Z,99944.66
2023-01-29T08:38:03.219Z,99957.00
2023-01-29T08:40:32.885Z,99936.84
2023-01-29T08:43:02.534Z,99948.16
2023-01-29T08:45:31.109Z,99953.91
2023-01-29T08:47:57.955Z,99945.88
2023-01-29T08:50:24.715Z,99943.66
2023-01-29T08:52:51.771Z,99941.59
2023-01-29T08:55:18.917Z,99948.56
2023-01-29T08:57:45.893Z,99944.88
2023-01-29T09:00:13.217Z,99955.34
2023-01-29T09:02:39.967Z,99951.44
2023-01-29T09:05:07.530Z,99945.06
2023-01-29T09:07:34.324Z,99951.22
2023-01-29T09:10:01.454Z,99946.69
2023-01-29T09:12:28.194Z,99953.06
2023-01-29T09:14:54.880Z,99950.59
2023-01-29T09:17:21.656Z,99956.75
2023-01-29T09:19:48.333Z,99963.34
2023-01-29T09:22:15.086Z,99957.97
2023-01-29T09:24:41.845Z,99956.53
2023-01-29T09:27:09.925Z,99959.44
2023-01-29T09:29:37.419Z,99966.19
2023-01-29T09:32:04.772Z,99970.94
2023-01-29T09:34:31.581Z,99970.75
2023-01-29T09:36:58.357Z,99964.13
2023-01-29T09:39:25.140Z,99949.31
2023-01-29T09:42:22.067Z,99927.50
2023-01-29T09:45:12.859Z,99920.88
2023-01-29T09:47:39.879Z,99920.63
2023-01-29T09:50:37.360Z,99913.66
2023-01-29T09:53:25.250Z,99910.63
2023-01-29T09:56:00.287Z,99903.03
2023-01-29T09:58:39.688Z,99893.78
2023-01-29T10:01:27.750Z,99892.94
2023-01-29T10:04:13.015Z,99878.34
2023-01-29T10:07:10.468Z,99895.97
2023-01-29T10:09:49.257Z,99910.53
2023-01-29T10:12:28.049Z,99910.97
2023-01-29T10:15:25.080Z,99906.09
2023-01-29T10:18:06.361Z,99914.50
2023-01-29T10:20:56.617Z,99913.47
2023-01-29T10:23:34.501Z,99910.97
2023-01-29T10:26:02.726Z,99913.47
2023-01-29T10:28:45.938Z,99907.69
2023-01-29T10:31:22.984Z,99911.75
2023-01-29T10:34:03.189Z,99909.44
2023-01-29T10:36:44.126Z,99904.47
2023-01-29T10:39:23.560Z,99903.22
2023-01-29T10:42:06.185Z,99911.44
2023-01-29T10:44:40.847Z,99917.41
2023-01-29T10:47:13.423Z,99917.25
2023-01-29T10:50:28.867Z,99923.56
2023-01-29T10:53:11.009Z,99922.31
2023-01-29T10:56:21.824Z,99924.78
2023-01-29T10:58:56.724Z,99917.22
2023-01-29T11:01:23.936Z,99921.47
2023-01-29T11:04:03.807Z,99912.81
2023-01-29T11:06:35.543Z,99904.59
2023-01-29T11:09:12.953Z,99904.16
2023-01-29T11:12:03.114Z,99915.66
2023-01-29T11:14:53.931Z,99909.09
2023-01-29T11:17:24.280Z,99903.50
2023-01-29T11:19:52.622Z,99893.19
2023-01-29T11:22:24.519Z,99884.31
2023-01-29T11:25:16.557Z,99880.69
2023-01-29T11:27:46.552Z,99878.63
2023-01-29T11:30:23.356Z,99876.81
2023-01-29T11:32:58.783Z,99880.97
2023-01-29T11:35:25.904Z,99881.31
2023-01-29T11:37:52.910Z,99865.41
2023-01-29T11:40:19.622Z,99851.84
2023-01-29T11:42:47.340Z,99853.25
2023-01-29T11:45:20.064Z,99855.00
2023-01-29T11:47:54.152Z,99841.22
2023-01-29T11:50:30.703Z,99847.63
2023-01-29T11:53:01.450Z,99847.78
2023-01-29T11:55:40.976Z,99848.44
2023-01-29T11:58:21.641Z,99851.66
2023-01-29T12:00:51.841Z,99837.41
2023-01-29T12:03:34.766Z,99832.47
2023-01-29T12:06:18.334Z,99824.13
2023-01-29T12:08:55.840Z,99814.59
2023-01-29T12:11:29.558Z,99801.56
2023-01-29T12:14:00.125Z,99805.63
2023-01-29T12:16:39.839Z,99797.75
2023-01-29T12:19:37.892Z,99791.47
2023-01-29T12:22:10.496Z,99789.16
2023-01-29T12:24:43.256Z,99779.09
2023-01-29T12:27:21.191Z,99775.72
2023-01-29T12:30:18.407Z,99770.78
2023-01-29T12:33:06.239Z,99765.47
2023-01-29T12:35:42.292Z,99767.47
2023-01-29T12:38:20.431Z,99762.59
2023-01-29T12:40:55.215Z,99758.31
2023-01-29T12:43:45.345Z,99758.13
2023-01-29T12:46:41.670Z,99748.69
2023-01-29T12:49:17.264Z,99742.53
2023-01-29T12:51:56.721Z,99735.94
2023-01-29T12:54:34.886Z,99731.59
2023-01-29T12:57:07.798Z,99730.19
2023-01-29T12:59:47.319Z,99729.00
2023-01-29T13:02:20.238Z,99720.75
2023-01-29T13:04:57.920Z,99720.50
2023-01-29T13:07:36.051Z,99711.25
2023-01-29T13:10:13.579Z,99696.56
2023-01-29T13:12:51.417Z,99698.22
2023-01-29T13:15:26.263Z,99698.81
2023-01-29T13:17:56.551Z,99695.44
2023-01-29T13:20:30.113Z,99690.41
2023-01-29T13:23:02.207Z,99696.25
2023-01-29T13:25:28.924Z,99708.03
2023-01-29T13:27:55.664Z,99708.56
2023-01-29T13:30:27.544Z,99706.44
2023-01-29T13:33:09.225Z,99706.69
2023-01-29T13:35:45.988Z,99711.22
2023-01-29T13:38:35.573Z,99718.69
2023-01-29T13:41:08.719Z,99709.91
2023-01-29T13:43:38.713Z,99717.63
2023-01-29T13:46:13.203Z,99713.47
2023-01-29T13:48:46.735Z,99709.84
2023-01-29T13:51:20.299Z,99710.75
2023-01-29T13:54:02.467Z,99702.38
2023-01-29T13:56:31.241Z,99710.03
2023-01-29T13:58:59.012Z,99703.09
2023-01-29T14:01:47.791Z,99702.03
2023-01-29T14:04:28.182Z,99708.22
2023-01-29T14:07:06.773Z,99699.59
2023-01-29T14:09:37.484Z,99705.44
2023-01-29T14:12:36.569Z,99700.75
2023-01-29T14:15:18.391Z,99702.72
2023-01-29T14:18:13.731Z,99683.50
2023-01-29T14:20:47.857Z,99677.09
2023-01-29T14:23:46.603Z,99681.06
2023-01-29T14:26:24.559Z,99677.34
2023-01-29T14:28:56.526Z,99675.94
2023-01-29T14:31:35.428Z,99666.63
2023-01-29T14:34:04.993Z,99672.91
2023-01-29T14:36:40.393Z,99672.78
2023-01-29T14:39:19.243Z,99666.09
2023-01-29T14:41:46.227Z,99668.66
2023-01-29T14:44:44.366Z,99673.63
2023-01-29T14:47:33.137Z,99682.34
2023-01-29T14:50:28.611Z,99685.50
2023-01-29T14:53:23.086Z,99693.28
2023-01-29T14:56:04.120Z,99691.31
2023-01-29T14:58:52.428Z,99688.03
2023-01-29T15:01:22.151Z,99676.78
2023-01-29T15:03:55.442Z,99676.59
2023-01-29T15:07:18.492Z,99678.06
2023-01-29T15:09:59.059Z,99671.69
2023-01-29T15:12:50.528Z,99674.94
2023-01-29T15:15:27.937Z,99677.03
2023-01-29T15:18:07.949Z,99683.66
2023-01-29T15:20:40.221Z,99679.78
2023-01-29T15:23:30.811Z,99687.22
2023-01-29T15:26:04.393Z,99691.59
2023-01-29T15:28:33.232Z,99686.69
2023-01-29T15:31:04.097Z,99686.25
2023-01-29T15:33:32.482Z,99693.25
2023-01-29T15:36:09.373Z,99691.44
2023-01-29T15:38:36.244Z,99696.22
2023-01-29T15:41:17.134Z,99695.47
2023-01-29T15:43:47.168Z,99687.75
2023-01-29T15:46:30.478Z,99685.66
2023-01-29T15:49:01.574Z,99677.19
2023-01-29T15:51:29.007Z,99681.72
2023-01-29T15:54:04.747Z,99676.22
2023-01-29T15:56:37.003Z,99676.28
2023-01-29T15:59:09.675Z,99677.72
2023-01-29T16:01:37.109Z,99669.53
2023-01-29T16:04:04.487Z,99671.81
2023-01-29T16:06:38.895Z,99669.16
2023-01-29T16:09:06.382Z,99662.16
2023-01-29T16:11:35.652Z,99666.91
2023-01-29T16:14:04.662Z,99677.69
2023-01-29T16:16:31.461Z,99676.84
2023-01-29T16:19:00.758Z,99675.84
2023-01-29T16:21:43.417Z,99685.78
2023-01-29T16:24:13.755Z,99690.38
2023-01-29T16:26:46.938Z,99690.06
2023-01-29T16:29:17.142Z,99689.88
2023-01-29T16:31:47.240Z,99689.72
2023-01-29T16:34:39.192Z,99684.44
2023-01-29T16:37:16.939Z,99689.25
2023-01-29T16:39:47.599Z,99691.41
2023-01-29T16:42:17.343Z,99694.16
2023-01-29T16:44:53.817Z,99686.97
2023-01-29T16:47:38.601Z,99688.81
2023-01-29T16:50:17.483Z,99689.41
2023-01-29T16:53:00.941Z,99685.28
2023-01-29T16:55:35.245Z,99689.38
2023-01-29T16:58:09.085Z,99692.69
2023-01-29T17:00:35.939Z,99685.16
2023-01-29T17:03:07.367Z,99685.59
2023-01-29T17:05:37.873Z,99693.84
2023-01-29T17:08:06.613Z,99689.13
2023-01-29T17:10:34.000Z,99686.50
2023-01-29T17:13:06.815Z,99688.50
2023-01-29T17:15:33.444Z,99688.50
2023-01-29T17:18:00.410Z,99687.47
2023-01-29T17:20:27.908Z,99683.16
2023-01-29T17:22:54.715Z,99680.06
2023-01-29T17:25:21.996Z,99681.97
2023-01-29T17:27:51.440Z,99678.69
2023-01-29T17:30:23.486Z,99680.81
2023-01-29T17:32:50.308Z,99674.44
2023-01-29T17:35:17.899Z,99682.81
2023-01-29T17:37:44.940Z,99678.50
2023-01-29T17:40:37.497Z,99681.78
2023-01-29T17:43:04.363Z,99672.97
2023-01-29T17:45:31.197Z,99673.34
2023-01-29T17:47:58.314Z,99666.38
2023-01-29T17:50:28.222Z,99661.69
2023-01-29T17:52:54.957Z,99670.31
2023-01-29T17:55:21.858Z,99674.84
2023-01-29T17:57:48.519Z,99666.66
2023-01-29T18:00:15.874Z,99667.25
2023-01-29T18:02:42.696Z,99662.53
2023-01-29T18:05:10.351Z,99666.63
2023-01-29T18:07:38.668Z,99663.94
2023-01-29T18:10:06.153Z,99665.81
2023-01-29T18:12:32.863Z,99668.91
2023-01-29T18:14:59.613Z,99668.13
2023-01-29T18:17:26.857Z,99663.16
2023-01-29T18:19:55.394Z,99663.56
2023-01-29T18:22:22.137Z,99670.13
2023-01-29T18:24:48.856Z,99668.88
2023-01-29T18:27:15.651Z,99669.69
2023-01-29T18:29:42.473Z,99660.28
2023-01-29T18:32:10.346Z,99666.91
2023-01-29T18:34:37.677Z,99668.53
2023-01-29T18:37:04.601Z,99663.19
2023-01-29T18:39:31.318Z,99656.88
2023-01-29T18:41:58.304Z,99656.69
2023-01-29T18:44:25.136Z,99659.56
2023-01-29T18:46:51.917Z,99664.72
2023-01-29T18:49:18.654Z,99665.31
2023-01-29T18:51:45.373Z,99664.09
2023-01-29T18:54:12.912Z,99660.59
2023-01-29T18:57:13.072Z,99668.38
2023-01-29T18:59:26.540Z,99669.03
2023-01-29T19:01:53.360Z,99670.66
2023-01-29T19:04:20.323Z,99668.81
2023-01-29T19:06:47.094Z,99678.06
2023-01-29T19:09:13.913Z,99681.53
2023-01-29T19:11:40.659Z,99684.41
2023-01-29T19:14:07.343Z,99689.97
2023-01-29T19:16:34.329Z,99693.25
2023-01-29T19:19:01.086Z,99687.09
2023-01-29T19:21:28.430Z,99681.34
2023-01-29T19:23:55.284Z,99682.59
2023-01-29T19:26:22.151Z,99683.59
2023-01-29T19:28:48.878Z,99679.69
2023-01-29T19:31:15.686Z,99677.44
2023-01-29T19:33:42.646Z,99679.50
2023-01-29T19:36:09.854Z,99673.78
2023-01-29T19:38:38.533Z,99677.03
2023-01-29T19:41:05.865Z,99679.31
2023-01-29T19:43:32.809Z,99669.66
2023-01-29T19:46:01.118Z,99669.47
2023-01-29T19:48:28.433Z,99668.84
2023-01-29T19:51:00.479Z,99663.72
2023-01-29T19:53:28.737Z,99663.13
2023-01-29T19:56:02.935Z,99663.72
2023-01-29T19:58:30.458Z,99656.56
2023-01-29T20:00:59.062Z,99664.53
2023-01-29T20:03:27.324Z,99655.13
2023-01-29T20:05:54.697Z,99653.88
2023-01-29T20:08:22.306Z,99661.06
2023-01-29T20:10:50.093Z,99656.78
2023-01-29T20:13:16.919Z,99655.72
2023-01-29T20:15:49.180Z,99659.81
2023-01-29T20:18:16.651Z,99657.56
2023-01-29T20:20:48.746Z,99658.41
2023-01-29T20:23:31.568Z,99652.06
2023-01-29T20:26:03.536Z,99645.28
2023-01-29T20:28:30.276Z,99646.72
2023-01-29T20:30:58.396Z,99645.88
2023-01-29T20:33:26.053Z,99653.28
2023-01-29T20:35:54.741Z,99649.78
2023-01-29T20:38:21.467Z,99636.66
2023-01-29T20:40:48.623Z,99639.31
2023-01-29T20:43:15.927Z,99641.16
2023-01-29T20:45:42.872Z,99637.28
2023-01-29T20:48:09.657Z,99638.28
2023-01-29T20:50:36.355Z,99637.06
2023-01-29T20:53:06.585Z,99631.34
2023-01-29T20:55:33.586Z,99627.25
2023-01-29T20:58:06.447Z,99636.66
2023-01-29T21:00:33.760Z,99626.19
2023-01-29T21:03:00.602Z,99629.06
2023-01-29T21:05:27.626Z,99632.38
2023-01-29T21:07:54.421Z,99623.75
2023-01-29T21:10:21.322Z,99629.28
2023-01-29T21:12:48.238Z,99626.59
2023-01-29T21:15:15.140Z,99631.31
2023-01-29T21:17:41.836Z,99625.56
2023-01-29T21:20:09.812Z,99623.75
2023-01-29T21:22:36.592Z,99634.81
2023-01-29T21:25:03.420Z,99634.16
2023-01-29T21:27:30.192Z,99641.13
2023-01-29T21:29:57.308Z,99630.06
2023-01-29T21:32:24.051Z,99636.63
2023-01-29T21:34:52.618Z,99631.06
2023-01-29T21:37:19.577Z,99628.41
2023-01-29T21:39:46.369Z,99624.34
2023-01-29T21:42:31.815Z,99626.97
2023-01-29T21:44:58.751Z,99630.88
2023-01-29T21:47:25.613Z,99629.00
2023-01-29T21:49:52.301Z,99614.50
2023-01-29T21:52:19.017Z,99617.38
2023-01-29T21:54:49.116Z,99617.97
2023-01-29T21:57:16.483Z,99612.16
2023-01-29T21:59:43.416Z,99612.59
2023-01-29T22:02:14.645Z,99618.34
2023-01-29T22:04:42.607Z,99612.41
2023-01-29T22:07:10.717Z,99610.78
2023-01-29T22:09:38.241Z,99604.22
2023-01-29T22:12:08.558Z,99602.78
2023-01-29T22:14:35.927Z,99612.22
2023-01-29T22:17:02.729Z,99610.38
2023-01-29T22:19:29.467Z,99607.94
2023-01-29T22:21:56.332Z,99603.22
2023-01-29T22:24:23.188Z,99599.97
2023-01-29T22:26:50.034Z,99590.53
2023-01-29T22:29:18.406Z,99598.50
2023-01-29T22:31:49.759Z,99590.44
2023-01-29T22:34:16.572Z,99580.19
2023-01-29T22:36:43.531Z,99576.06
2023-01-29T22:39:16.298Z,99569.13
2023-01-29T22:41:50.624Z,99556.66
2023-01-29T22:44:17.368Z,99552.34
2023-01-29T22:46:44.501Z,99546.38
2023-01-29T22:49:11.264Z,99541.47
2023-01-29T22:51:37.893Z,99544.75
2023-01-29T22:54:04.621Z,99538.00
2023-01-29T22:56:31.367Z,99531.22
2023-01-29T22:59:00.754Z,99516.28
2023-01-29T23:01:29.874Z,99507.91
2023-01-29T23:03:57.699Z,99511.59
2023-01-29T23:06:24.420Z,99501.97
2023-01-29T23:08:51.526Z,99500.72
2023-01-29T23:11:21.058Z,99511.19
2023-01-29T23:13:51.008Z,99509.97
2023-01-29T23:16:19.187Z,99508.16
2023-01-29T23:18:50.157Z,99508.75
2023-01-29T23:21:17.351Z,99504.66
2023-01-29T23:23:45.093Z,99521.44
2023-01-29T23:26:31.639Z,99508.94
2023-01-29T23:28:58.851Z,99501.81
2023-01-29T23:31:26.156Z,99507.31
2023-01-29T23:33:52.904Z,99504.63
2023-01-29T23:36:19.696Z,99511.81
2023-01-29T23:38:46.446Z,99506.44
2023-01-29T23:41:13.725Z,99505.03
2023-01-29T23:43:40.438Z,99505.44
2023-01-29T23:46:07.404Z,99504.19
2023-01-29T23:48:34.200Z,99484.97
2023-01-29T23:51:00.891Z,99478.03
2023-01-29T23:53:27.652Z,99464.50
2023-01-29T23:56:05.425Z,99453.19
2023-01-29T23:58:33.338Z,99448.31
